Time;durP1;ratioP1;P1;durP2;ratioP2;P2;SDS_P1;SDS_P2;PMS_P1;PMS_P2;Temp;Humidity;BMP_temperature;BMP_pressure;BME280_temperature;BME280_humidity;BME280_pressure;Samples;Min_cycle;Max_cycle;Signal;HPM_P1;HPM_P2
2023/11/23 00:00:20;;;;;;;9.63;6.93;;;4.50;80.60;;;;;;5000977;28;20073;-62
2023/11/23 00:02:46;;;;;;;9.73;7.57;;;4.40;80.40;;;;;;4998893;28;20046;-62
2023/11/23 00:05:12;;;;;;;10.48;7.50;;;4.40;80.50;;;;;;5004253;28;20045;-62
2023/11/23 00:07:40;;;;;;;11.75;7.72;;;4.40;80.40;;;;;;5003130;28;20706;-61
2023/11/23 00:10:07;;;;;;;11.50;7.97;;;4.40;80.40;;;;;;5000316;28;20038;-62
2023/11/23 00:12:32;;;;;;;10.27;7.55;;;4.40;80.40;;;;;;5001480;28;20022;-62
2023/11/23 00:15:00;;;;;;;10.15;7.30;;;4.30;80.30;;;;;;5002881;28;20394;-61
2023/11/23 00:17:25;;;;;;;10.68;7.45;;;4.30;80.40;;;;;;5001449;28;20485;-62
2023/11/23 00:19:51;;;;;;;10.68;7.45;;;4.20;80.60;;;;;;5000597;28;20108;-61
2023/11/23 00:22:17;;;;;;;9.57;7.22;;;4.20;80.70;;;;;;4987392;28;20026;-62
2023/11/23 00:24:42;;;;;;;10.55;7.22;;;4.20;80.80;;;;;;5002362;28;20044;-61
2023/11/23 00:27:08;;;;;;;8.52;6.88;;;4.20;81.00;;;;;;5000735;28;20030;-62
2023/11/23 00:29:34;;;;;;;10.32;7.40;;;4.20;81.10;;;;;;5001779;28;20532;-62
2023/11/23 00:31:59;;;;;;;11.55;7.65;;;4.20;81.10;;;;;;5002932;28;20076;-63
2023/11/23 00:34:25;;;;;;;11.73;7.32;;;4.20;80.90;;;;;;5002849;28;20037;-62
2023/11/23 00:36:51;;;;;;;13.75;8.00;;;4.10;80.70;;;;;;4981425;28;20038;-62
2023/11/23 00:39:17;;;;;;;10.60;7.47;;;4.10;80.70;;;;;;4983883;28;20141;-62
2023/11/23 00:41:43;;;;;;;12.38;8.48;;;4.10;80.70;;;;;;4982662;28;20046;-62
2023/11/23 00:44:09;;;;;;;11.95;8.27;;;4.00;80.70;;;;;;4979354;28;20041;-61
2023/11/23 00:46:37;;;;;;;12.48;8.70;;;4.00;80.80;;;;;;4996325;28;20575;-62
2023/11/23 00:49:04;;;;;;;11.75;8.00;;;3.90;81.00;;;;;;4983848;28;20050;-62
2023/11/23 00:51:32;;;;;;;10.52;8.23;;;3.80;81.30;;;;;;4999950;28;20061;-61
2023/11/23 00:53:58;;;;;;;13.18;9.90;;;3.80;81.60;;;;;;4999502;28;20045;-62
2023/11/23 00:56:23;;;;;;;12.10;8.70;;;3.80;81.90;;;;;;5002740;28;20042;-62
2023/11/23 00:58:50;;;;;;;10.93;8.27;;;3.70;82.00;;;;;;4999177;28;20088;-61
2023/11/23 01:01:15;;;;;;;11.30;7.22;;;3.70;82.30;;;;;;4999929;28;20029;-62
2023/11/23 01:03:41;;;;;;;10.57;7.47;;;3.70;82.60;;;;;;4999196;28;20044;-60
2023/11/23 01:06:07;;;;;;;10.68;7.65;;;3.60;82.80;;;;;;4998725;28;20525;-60
2023/11/23 01:08:33;;;;;;;11.95;7.80;;;3.60;83.10;;;;;;4999219;28;20528;-62
2023/11/23 01:11:02;;;;;;;12.88;7.95;;;3.60;83.30;;;;;;4997420;28;20049;-62
2023/11/23 01:13:29;;;;;;;10.15;7.20;;;3.70;83.50;;;;;;5004019;28;20037;-62
2023/11/23 01:15:55;;;;;;;11.07;7.75;;;3.70;83.40;;;;;;5002630;28;20030;-62
2023/11/23 01:18:21;;;;;;;10.63;7.57;;;3.70;83.50;;;;;;5005045;28;20528;-59
2023/11/23 01:20:47;;;;;;;10.90;7.72;;;3.70;83.60;;;;;;5001234;28;20057;-62
2023/11/23 01:23:13;;;;;;;12.32;7.55;;;3.80;83.70;;;;;;4999376;28;20120;-62
2023/11/23 01:25:39;;;;;;;14.80;7.63;;;3.80;83.80;;;;;;4999309;28;20060;-62
2023/11/23 01:28:05;;;;;;;11.60;7.43;;;3.80;83.70;;;;;;5000193;28;20042;-61
2023/11/23 01:30:30;;;;;;;11.05;7.63;;;3.80;83.80;;;;;;5000116;28;20541;-62
2023/11/23 01:32:56;;;;;;;10.82;7.68;;;3.80;83.90;;;;;;4992937;28;20544;-61
2023/11/23 01:35:22;;;;;;;9.70;7.47;;;3.80;84.00;;;;;;5001691;28;20030;-62
2023/11/23 01:37:50;;;;;;;11.15;7.95;;;3.80;84.10;;;;;;5000604;28;20038;-61
2023/11/23 01:40:17;;;;;;;11.40;7.57;;;3.80;84.20;;;;;;4998280;28;20030;-61
2023/11/23 01:42:43;;;;;;;11.82;7.75;;;3.80;84.20;;;;;;5002573;28;20044;-61
2023/11/23 01:45:09;;;;;;;11.00;7.60;;;3.80;84.20;;;;;;5004346;28;20030;-60
2023/11/23 01:47:41;;;;;;;10.18;7.15;;;3.90;84.30;;;;;;5005211;28;20038;-61
2023/11/23 01:50:08;;;;;;;11.50;7.60;;;3.90;84.40;;;;;;5004823;28;20026;-61
2023/11/23 01:52:34;;;;;;;9.75;7.25;;;3.90;84.30;;;;;;5004252;28;20034;-62
2023/11/23 01:55:01;;;;;;;12.13;8.00;;;3.90;84.30;;;;;;4981548;28;20099;-62
2023/11/23 01:57:30;;;;;;;9.48;7.05;;;4.00;84.40;;;;;;5004998;28;20129;-60
2023/11/23 01:59:58;;;;;;;9.48;7.25;;;4.00;84.40;;;;;;5005308;28;20409;-61
2023/11/23 02:02:24;;;;;;;9.63;7.13;;;4.00;84.40;;;;;;5001243;28;20065;-62
2023/11/23 02:04:51;;;;;;;10.57;7.10;;;4.00;84.20;;;;;;5006409;28;20236;-62
2023/11/23 02:07:17;;;;;;;10.27;6.85;;;4.10;84.30;;;;;;5004023;28;20116;-61
2023/11/23 02:09:42;;;;;;;8.68;6.82;;;4.10;84.40;;;;;;5000346;28;20157;-62
2023/11/23 02:12:09;;;;;;;10.52;7.30;;;4.10;84.30;;;;;;5000588;28;20037;-62
2023/11/23 02:14:36;;;;;;;9.95;6.90;;;4.20;84.30;;;;;;5005739;28;20323;-62
2023/11/23 02:17:18;;;;;;;8.73;5.97;;;4.20;84.20;;;;;;5005239;28;20460;-61
2023/11/23 02:19:45;;;;;;;8.88;6.18;;;4.20;84.20;;;;;;5006861;28;20120;-62
2023/11/23 02:22:11;;;;;;;8.85;6.32;;;4.20;84.00;;;;;;5004075;28;20545;-62
2023/11/23 02:24:38;;;;;;;8.73;6.15;;;4.20;83.90;;;;;;5002200;28;20037;-62
2023/11/23 02:27:04;;;;;;;7.90;6.28;;;4.30;84.00;;;;;;4999946;28;20080;-62
2023/11/23 02:29:29;;;;;;;9.90;6.60;;;4.30;83.90;;;;;;5004117;28;20065;-61
2023/11/23 02:31:55;;;;;;;8.65;6.40;;;4.30;83.80;;;;;;5000209;28;20136;-62
2023/11/23 02:34:21;;;;;;;7.18;5.57;;;4.30;83.70;;;;;;5001177;28;20239;-62
2023/11/23 02:36:47;;;;;;;7.80;6.15;;;4.30;83.60;;;;;;5001504;28;20536;-62
2023/11/23 02:39:13;;;;;;;10.07;6.28;;;4.20;83.50;;;;;;5005280;28;20088;-61
2023/11/23 02:41:38;;;;;;;7.75;5.95;;;4.20;83.50;;;;;;5002557;28;20034;-62
2023/11/23 02:44:04;;;;;;;8.00;6.20;;;4.20;83.70;;;;;;5002347;28;20033;-61
2023/11/23 02:46:30;;;;;;;8.02;6.20;;;4.20;83.80;;;;;;5004541;28;20482;-61
2023/11/23 02:48:55;;;;;;;9.50;7.00;;;4.20;83.80;;;;;;5001747;28;20044;-62
2023/11/23 02:51:21;;;;;;;10.27;7.97;;;4.20;83.80;;;;;;5006067;28;20053;-62
2023/11/23 02:53:47;;;;;;;12.05;7.95;;;4.20;83.70;;;;;;5004408;28;20651;-62
2023/11/23 02:56:15;;;;;;;11.65;7.93;;;4.20;83.60;;;;;;5001060;28;20540;-62
2023/11/23 02:58:41;;;;;;;11.98;7.60;;;4.10;83.60;;;;;;5002170;28;20033;-61
2023/11/23 03:01:07;;;;;;;11.73;7.93;;;4.10;83.90;;;;;;5003230;28;20030;-62
2023/11/23 03:03:33;;;;;;;9.88;7.38;;;4.10;84.00;;;;;;5000905;28;20046;-61
2023/11/23 03:06:00;;;;;;;9.32;6.97;;;4.10;84.00;;;;;;5003663;28;20087;-62
2023/11/23 03:08:27;;;;;;;10.77;8.00;;;4.00;84.00;;;;;;5000490;28;20729;-60
2023/11/23 03:10:55;;;;;;;11.82;7.90;;;4.00;84.00;;;;;;5001137;28;20048;-62
2023/11/23 03:13:22;;;;;;;12.23;8.73;;;4.00;84.10;;;;;;5000574;28;20477;-61
2023/11/23 03:15:50;;;;;;;11.80;8.18;;;4.00;84.10;;;;;;5003323;28;20271;-62
2023/11/23 03:18:15;;;;;;;12.32;7.45;;;4.00;84.20;;;;;;5002692;28;20107;-62
2023/11/23 03:20:41;;;;;;;11.60;7.72;;;4.00;84.40;;;;;;5004368;28;20041;-62
2023/11/23 03:23:07;;;;;;;10.90;7.97;;;4.00;84.60;;;;;;5002083;28;20108;-61
2023/11/23 03:25:33;;;;;;;11.52;8.10;;;4.10;84.70;;;;;;5002883;28;20493;-62
2023/11/23 03:27:58;;;;;;;11.95;7.93;;;4.10;84.70;;;;;;4998675;28;20034;-62
2023/11/23 03:30:24;;;;;;;11.73;7.22;;;4.10;84.60;;;;;;4996892;28;20235;-63
2023/11/23 03:32:50;;;;;;;9.90;7.57;;;4.20;85.20;;;;;;4983600;28;20088;-62
2023/11/23 03:35:16;;;;;;;8.82;6.85;;;4.20;84.40;;;;;;5004035;28;20034;-62
2023/11/23 03:37:42;;;;;;;8.43;6.90;;;4.20;84.30;;;;;;4987774;28;20033;-62
2023/11/23 03:40:09;;;;;;;9.52;6.47;;;4.20;84.30;;;;;;5005274;28;20064;-62
2023/11/23 03:42:34;;;;;;;7.72;5.88;;;4.20;84.30;;;;;;4987304;28;20033;-62
2023/11/23 03:45:00;;;;;;;8.43;6.10;;;4.20;84.20;;;;;;5006785;28;20096;-62
2023/11/23 03:47:25;;;;;;;10.10;6.90;;;4.20;84.20;;;;;;5005351;28;20036;-62
2023/11/23 03:49:51;;;;;;;8.57;6.70;;;4.20;84.00;;;;;;5006152;28;20117;-62
2023/11/23 03:52:17;;;;;;;10.40;7.07;;;4.20;83.90;;;;;;5005204;28;20037;-62
2023/11/23 03:54:42;;;;;;;9.75;6.72;;;4.20;83.90;;;;;;5005897;28;20034;-61
2023/11/23 03:57:08;;;;;;;8.88;6.88;;;4.20;83.90;;;;;;5006149;28;20026;-62
2023/11/23 03:59:33;;;;;;;8.57;6.15;;;4.20;84.00;;;;;;5005474;28;20054;-62
2023/11/23 04:01:59;;;;;;;9.02;6.57;;;4.20;84.00;;;;;;5005701;28;20034;-62
2023/11/23 04:04:25;;;;;;;9.95;6.53;;;4.10;84.10;;;;;;5006296;28;20056;-61
2023/11/23 04:06:50;;;;;;;9.23;6.28;;;4.10;84.20;;;;;;5006264;28;20121;-61
2023/11/23 04:09:18;;;;;;;9.48;7.10;;;4.10;84.20;;;;;;5006056;28;20130;-62
2023/11/23 04:11:44;;;;;;;9.82;6.35;;;4.20;84.20;;;;;;5006063;28;20509;-61
2023/11/23 04:14:10;;;;;;;8.02;6.50;;;4.10;84.10;;;;;;5007086;28;20030;-62
2023/11/23 04:16:38;;;;;;;9.23;6.35;;;4.10;84.10;;;;;;5001134;28;20409;-62
2023/11/23 04:19:04;;;;;;;8.70;6.68;;;4.10;84.00;;;;;;4995470;28;20046;-62
2023/11/23 04:21:29;;;;;;;8.43;6.57;;;4.10;84.00;;;;;;4996043;28;20034;-62
2023/11/23 04:23:55;;;;;;;9.32;6.97;;;4.10;84.10;;;;;;4999210;28;20037;-61
2023/11/23 04:26:20;;;;;;;9.75;7.10;;;4.10;84.00;;;;;;4997653;28;20034;-61
2023/11/23 04:28:48;;;;;;;8.80;6.90;;;4.00;84.00;;;;;;4996029;28;20053;-61
2023/11/23 04:31:13;;;;;;;8.82;6.43;;;4.00;84.00;;;;;;4996189;28;20042;-64
2023/11/23 04:33:39;;;;;;;8.68;6.43;;;4.00;84.90;;;;;;4997406;28;20497;-62
2023/11/23 04:36:05;;;;;;;10.15;7.00;;;4.00;84.20;;;;;;4996835;28;20049;-62
2023/11/23 04:38:30;;;;;;;9.15;6.93;;;4.00;84.40;;;;;;4998388;28;20044;-62
2023/11/23 04:40:56;;;;;;;8.65;6.72;;;4.00;84.50;;;;;;4979669;28;20147;-61
2023/11/23 04:43:21;;;;;;;10.57;7.72;;;4.10;84.40;;;;;;4998056;28;20038;-60
2023/11/23 04:45:47;;;;;;;11.68;8.27;;;4.00;84.40;;;;;;4995065;28;20034;-62
2023/11/23 04:48:13;;;;;;;11.40;8.20;;;4.10;84.50;;;;;;5002516;28;20037;-61
2023/11/23 04:50:39;;;;;;;11.40;8.38;;;4.10;84.50;;;;;;4995941;28;20579;-62
2023/11/23 04:53:05;;;;;;;10.98;8.20;;;4.10;84.20;;;;;;4999879;28;20030;-62
2023/11/23 04:55:31;;;;;;;10.68;7.72;;;4.10;84.00;;;;;;5005640;28;20033;-61
2023/11/23 04:57:57;;;;;;;11.20;7.93;;;4.10;84.00;;;;;;5004676;28;20333;-62
2023/11/23 05:00:24;;;;;;;10.63;7.80;;;4.10;83.90;;;;;;5004295;28;20037;-62
2023/11/23 05:02:54;;;;;;;12.20;8.23;;;4.10;83.90;;;;;;5002089;28;20450;-61
2023/11/23 05:05:20;;;;;;;10.43;7.50;;;4.10;83.70;;;;;;4997672;28;20108;-62
2023/11/23 05:07:46;;;;;;;10.13;7.53;;;4.10;83.70;;;;;;4996627;28;20124;-62
2023/11/23 05:10:12;;;;;;;9.52;7.47;;;4.10;83.70;;;;;;5005945;28;20129;-60
2023/11/23 05:12:39;;;;;;;10.52;7.60;;;4.10;83.70;;;;;;5003086;28;20097;-62
2023/11/23 05:15:05;;;;;;;12.38;7.90;;;4.10;83.70;;;;;;5005652;28;20490;-62
2023/11/23 05:17:31;;;;;;;9.00;7.13;;;4.10;83.60;;;;;;5008826;28;20030;-62
2023/11/23 05:19:56;;;;;;;10.88;7.43;;;4.10;83.40;;;;;;5008947;28;20515;-61
2023/11/23 05:22:23;;;;;;;11.13;7.32;;;4.10;83.30;;;;;;5009647;28;20116;-62
2023/11/23 05:24:48;;;;;;;10.13;7.32;;;4.10;83.30;;;;;;5009152;28;20103;-61
2023/11/23 05:27:14;;;;;;;10.10;7.00;;;4.10;83.40;;;;;;5007854;28;20026;-61
2023/11/23 05:29:39;;;;;;;10.15;7.25;;;4.10;83.40;;;;;;4995243;28;20045;-62
2023/11/23 05:32:06;;;;;;;8.88;6.68;;;4.00;83.30;;;;;;5003053;28;20048;-62
2023/11/23 05:34:31;;;;;;;9.98;6.80;;;4.00;83.30;;;;;;5005173;28;20034;-61
2023/11/23 05:36:57;;;;;;;11.90;7.70;;;4.00;83.40;;;;;;4987127;28;20104;-62
2023/11/23 05:39:22;;;;;;;9.13;6.75;;;4.00;83.50;;;;;;5004710;28;20045;-61
2023/11/23 05:41:48;;;;;;;9.52;7.05;;;3.90;83.50;;;;;;5005344;28;20042;-61
2023/11/23 05:44:14;;;;;;;10.88;7.10;;;3.90;83.70;;;;;;5004677;28;20095;-62
2023/11/23 05:46:39;;;;;;;12.30;6.93;;;3.90;83.80;;;;;;5004687;28;20529;-62
2023/11/23 05:49:06;;;;;;;11.80;6.63;;;3.90;83.90;;;;;;5006026;28;20489;-62
2023/11/23 05:51:32;;;;;;;12.70;7.00;;;3.80;84.00;;;;;;5006263;28;20497;-62
2023/11/23 05:53:57;;;;;;;10.20;6.95;;;3.80;84.10;;;;;;5005598;28;20042;-62
2023/11/23 05:56:23;;;;;;;13.50;8.40;;;3.90;84.20;;;;;;5005765;28;20602;-62
2023/11/23 05:58:49;;;;;;;13.55;8.98;;;3.80;84.20;;;;;;5005274;28;20301;-62
2023/11/23 06:01:15;;;;;;;10.43;7.57;;;3.80;85.10;;;;;;5004492;28;20041;-62
2023/11/23 06:03:41;;;;;;;10.98;7.25;;;3.80;84.20;;;;;;5006010;28;20038;-62
2023/11/23 06:06:07;;;;;;;11.00;7.10;;;3.90;84.30;;;;;;5005718;28;20061;-63
2023/11/23 06:08:34;;;;;;;11.10;6.85;;;3.80;84.20;;;;;;5005077;28;20085;-61
2023/11/23 06:11:00;;;;;;;10.15;6.90;;;3.80;84.30;;;;;;5004622;28;20062;-62
2023/11/23 06:13:25;;;;;;;11.13;7.07;;;3.80;84.40;;;;;;5005253;28;20147;-62
2023/11/23 06:15:51;;;;;;;9.85;6.93;;;3.90;84.40;;;;;;5005830;28;20038;-62
2023/11/23 06:18:17;;;;;;;15.70;7.18;;;3.80;84.50;;;;;;5005136;28;20129;-62
2023/11/23 06:20:43;;;;;;;14.13;7.05;;;3.90;84.50;;;;;;5005877;28;21963;-60
2023/11/23 06:23:10;;;;;;;13.25;7.15;;;3.90;84.50;;;;;;5006495;28;20405;-60
2023/11/23 06:25:35;;;;;;;12.68;7.35;;;3.90;84.50;;;;;;5004824;28;20040;-62
2023/11/23 06:28:01;;;;;;;11.32;7.35;;;3.90;84.50;;;;;;5004470;28;20421;-62
2023/11/23 06:30:27;;;;;;;15.82;7.95;;;3.90;84.60;;;;;;5005079;28;20040;-62
2023/11/23 06:32:52;;;;;;;14.15;8.38;;;3.80;84.50;;;;;;5005451;28;20119;-62
2023/11/23 06:35:18;;;;;;;16.80;8.77;;;3.80;84.50;;;;;;5004745;28;20030;-63
2023/11/23 06:37:44;;;;;;;20.75;8.10;;;3.80;84.60;;;;;;5005916;28;20045;-62
2023/11/23 06:40:10;;;;;;;19.40;8.02;;;3.80;84.70;;;;;;5004887;28;20563;-62
2023/11/23 06:42:36;;;;;;;15.88;7.63;;;3.80;84.70;;;;;;5002422;28;20034;-62
2023/11/23 06:45:02;;;;;;;20.83;7.63;;;3.80;84.70;;;;;;5004316;28;20540;-63
2023/11/23 06:47:28;;;;;;;13.75;7.50;;;3.80;84.70;;;;;;5004488;28;20033;-62
2023/11/23 06:49:54;;;;;;;19.52;7.68;;;3.80;84.70;;;;;;5004758;28;20042;-62
2023/11/23 06:52:20;;;;;;;15.82;7.65;;;3.80;84.70;;;;;;5003842;28;20401;-61
2023/11/23 06:54:46;;;;;;;15.35;7.47;;;3.80;84.70;;;;;;5003586;28;20300;-63
2023/11/23 06:57:12;;;;;;;13.27;8.23;;;3.80;84.70;;;;;;5004857;28;20406;-62
2023/11/23 06:59:37;;;;;;;15.70;7.47;;;3.80;84.70;;;;;;5003131;28;20507;-62
2023/11/23 07:02:04;;;;;;;14.45;8.23;;;3.80;84.70;;;;;;5004710;28;20038;-62
2023/11/23 07:04:30;;;;;;;14.10;8.30;;;3.90;84.80;;;;;;5004185;28;20045;-62
2023/11/23 07:06:56;;;;;;;16.15;8.45;;;3.90;84.80;;;;;;5004337;28;20026;-62
2023/11/23 07:09:21;;;;;;;12.25;7.93;;;3.80;84.70;;;;;;5004523;28;20042;-63
2023/11/23 07:11:49;;;;;;;13.32;7.57;;;3.80;84.70;;;;;;5000970;28;20274;-63
2023/11/23 07:14:15;;;;;;;14.20;8.50;;;3.80;84.70;;;;;;4986223;28;20390;-62
2023/11/23 07:16:40;;;;;;;18.80;8.27;;;3.80;84.70;;;;;;5003198;28;20045;-62
2023/11/23 07:19:06;;;;;;;14.25;8.48;;;3.80;84.90;;;;;;5005018;28;20048;-62
2023/11/23 07:21:31;;;;;;;16.90;8.80;;;3.70;85.00;;;;;;4986746;28;20033;-63
2023/11/23 07:23:57;;;;;;;14.35;8.88;;;3.70;85.20;;;;;;5004231;28;20038;-62
2023/11/23 07:26:23;;;;;;;17.67;9.57;;;3.70;85.30;;;;;;5003876;28;20137;-63
2023/11/23 07:28:48;;;;;;;16.38;9.63;;;3.70;85.60;;;;;;5003262;28;20038;-63
2023/11/23 07:31:14;;;;;;;15.48;9.18;;;3.70;85.80;;;;;;5004485;28;20716;-63
2023/11/23 07:33:39;;;;;;;18.45;10.68;;;3.70;85.80;;;;;;5003912;28;20034;-62
2023/11/23 07:36:06;;;;;;;19.73;10.82;;;3.80;86.10;;;;;;5003563;28;20091;-63
2023/11/23 07:38:32;;;;;;;17.52;10.70;;;3.80;86.10;;;;;;5003210;28;20524;-63
2023/11/23 07:41:00;;;;;;;19.40;10.95;;;3.80;86.20;;;;;;5002366;28;20030;-62
2023/11/23 07:43:26;;;;;;;18.95;9.38;;;3.80;86.20;;;;;;5003899;28;20061;-62
2023/11/23 07:45:52;;;;;;;18.10;9.80;;;3.80;86.30;;;;;;5004568;28;20525;-62
2023/11/23 07:48:18;;;;;;;14.90;9.68;;;3.80;86.30;;;;;;5003708;28;20038;-62
2023/11/23 07:50:43;;;;;;;17.98;10.10;;;3.80;86.50;;;;;;5002559;28;20038;-61
2023/11/23 07:53:09;;;;;;;18.98;9.88;;;3.90;86.50;;;;;;5003561;28;20034;-62
2023/11/23 07:55:36;;;;;;;16.27;9.07;;;3.90;86.50;;;;;;5003024;28;20034;-63
2023/11/23 07:58:02;;;;;;;18.85;9.85;;;4.00;86.50;;;;;;5002609;28;20033;-62
2023/11/23 08:00:28;;;;;;;20.13;10.15;;;4.00;86.60;;;;;;5002892;28;20034;-62
2023/11/23 08:02:54;;;;;;;21.17;9.55;;;4.10;86.60;;;;;;5000265;28;20038;-61
2023/11/23 08:05:20;;;;;;;18.15;10.15;;;4.10;86.60;;;;;;5002670;28;20062;-62
2023/11/23 08:07:47;;;;;;;20.88;10.32;;;4.10;86.70;;;;;;5002042;28;20502;-63
2023/11/23 08:10:15;;;;;;;15.65;9.57;;;4.10;86.60;;;;;;5001372;28;20176;-62
2023/11/23 08:12:44;;;;;;;19.55;9.70;;;4.20;86.70;;;;;;5001522;28;20394;-62
2023/11/23 08:15:10;;;;;;;16.63;10.48;;;4.20;86.80;;;;;;5002915;28;20446;-62
2023/11/23 08:17:36;;;;;;;17.55;10.13;;;4.30;86.80;;;;;;5002457;28;20573;-63
2023/11/23 08:20:07;;;;;;;16.77;9.70;;;4.30;86.70;;;;;;5002085;28;20061;-62
2023/11/23 08:22:33;;;;;;;14.63;9.95;;;4.30;86.60;;;;;;5002106;28;20030;-62
2023/11/23 08:24:59;;;;;;;13.95;9.63;;;4.40;86.60;;;;;;5002627;28;20553;-62
2023/11/23 08:27:25;;;;;;;15.30;9.95;;;4.40;86.70;;;;;;5002713;28;20040;-62
2023/11/23 08:29:50;;;;;;;15.10;9.88;;;4.40;86.70;;;;;;5003078;28;20038;-62
2023/11/23 08:32:16;;;;;;;18.42;9.98;;;4.50;86.80;;;;;;5002285;28;20129;-62
2023/11/23 08:34:42;;;;;;;19.35;10.13;;;4.50;86.80;;;;;;5002562;28;20034;-61
2023/11/23 08:37:08;;;;;;;19.20;10.82;;;4.50;86.90;;;;;;5002388;28;20037;-63
2023/11/23 08:39:34;;;;;;;17.25;10.45;;;4.60;87.00;;;;;;4984823;28;20033;-62
2023/11/23 08:42:00;;;;;;;18.88;10.13;;;4.70;87.00;;;;;;5002589;28;20034;-62
2023/11/23 08:44:26;;;;;;;17.20;10.85;;;4.70;87.00;;;;;;5002446;28;20568;-63
2023/11/23 08:46:51;;;;;;;16.35;10.00;;;4.80;87.10;;;;;;5002440;28;20267;-62
2023/11/23 08:49:17;;;;;;;13.82;9.77;;;4.80;86.90;;;;;;5002192;28;20109;-62
2023/11/23 08:51:42;;;;;;;16.10;10.35;;;4.90;86.80;;;;;;5000714;28;20517;-62
2023/11/23 08:54:09;;;;;;;15.20;10.60;;;4.90;86.60;;;;;;5002402;28;20056;-61
2023/11/23 08:56:35;;;;;;;17.27;10.38;;;4.90;86.60;;;;;;5002561;28;20501;-62
2023/11/23 08:59:02;;;;;;;18.02;11.32;;;5.00;86.60;;;;;;5001908;28;20128;-61
2023/11/23 09:01:28;;;;;;;17.95;11.63;;;5.00;86.60;;;;;;5000411;28;20034;-62
2023/11/23 09:03:54;;;;;;;18.35;12.00;;;5.00;86.50;;;;;;5002816;28;20357;-62
2023/11/23 09:06:21;;;;;;;15.57;11.02;;;5.10;86.50;;;;;;5003800;28;20034;-62
2023/11/23 09:08:47;;;;;;;17.00;11.25;;;5.10;86.50;;;;;;5002155;28;20121;-63
2023/11/23 09:11:12;;;;;;;14.80;10.38;;;5.10;86.40;;;;;;5000979;28;20574;-62
2023/11/23 09:13:38;;;;;;;16.25;10.95;;;5.10;86.20;;;;;;5003668;28;20057;-62
2023/11/23 09:16:04;;;;;;;16.67;11.25;;;5.20;86.30;;;;;;5003014;28;20037;-61
2023/11/23 09:18:30;;;;;;;15.98;10.70;;;5.20;86.00;;;;;;4984737;28;20228;-63
2023/11/23 09:20:56;;;;;;;16.58;11.52;;;5.20;85.70;;;;;;5001860;28;20069;-63
2023/11/23 09:23:21;;;;;;;15.27;10.73;;;5.20;85.60;;;;;;5002407;28;20112;-62
2023/11/23 09:25:47;;;;;;;17.63;11.13;;;5.20;85.70;;;;;;5002913;28;20399;-63
2023/11/23 09:28:14;;;;;;;20.95;11.40;;;5.20;85.90;;;;;;5002750;28;20049;-61
2023/11/23 09:30:40;;;;;;;17.63;11.40;;;5.20;86.10;;;;;;5002601;28;20038;-62
2023/11/23 09:33:09;;;;;;;14.65;10.52;;;5.20;86.10;;;;;;5003007;28;20026;-63
2023/11/23 09:35:37;;;;;;;16.10;10.25;;;5.20;86.00;;;;;;5002432;28;20045;-61
2023/11/23 09:38:04;;;;;;;22.83;9.73;;;5.30;85.80;;;;;;5002226;28;20488;-62
2023/11/23 09:40:30;;;;;;;14.82;9.68;;;5.30;85.70;;;;;;5002941;28;20041;-63
2023/11/23 09:42:56;;;;;;;14.00;9.52;;;5.40;85.70;;;;;;5002608;28;20053;-63
2023/11/23 09:45:24;;;;;;;17.58;9.77;;;5.40;85.50;;;;;;5003960;28;20029;-62
2023/11/23 09:47:50;;;;;;;17.30;10.57;;;5.50;85.60;;;;;;5002513;28;20038;-62
2023/11/23 09:50:19;;;;;;;13.77;8.85;;;5.50;85.40;;;;;;4985297;28;20041;-62
2023/11/23 09:52:49;;;;;;;15.40;9.63;;;5.50;85.10;;;;;;5002456;28;20117;-62
2023/11/23 09:55:18;;;;;;;14.55;10.07;;;5.50;84.90;;;;;;5003123;28;20034;-62
2023/11/23 09:57:44;;;;;;;17.25;10.27;;;5.60;84.60;;;;;;5002817;28;20093;-63
2023/11/23 10:00:14;;;;;;;16.70;10.07;;;5.60;84.80;;;;;;4999902;28;20069;-63
2023/11/23 10:02:44;;;;;;;15.65;9.18;;;5.70;84.80;;;;;;5000438;28;20128;-62
2023/11/23 10:05:14;;;;;;;16.13;9.07;;;5.70;84.60;;;;;;5006545;28;20038;-62
2023/11/23 10:07:42;;;;;;;17.13;9.60;;;5.70;84.50;;;;;;5006047;28;20088;-62
2023/11/23 10:10:10;;;;;;;13.77;9.55;;;5.80;84.60;;;;;;5006818;28;20038;-62
2023/11/23 10:12:36;;;;;;;13.32;9.15;;;5.80;84.60;;;;;;5006465;28;20521;-62
2023/11/23 10:15:02;;;;;;;12.85;8.20;;;5.90;84.60;;;;;;5006878;28;20406;-62
2023/11/23 10:17:29;;;;;;;13.68;8.43;;;5.90;84.40;;;;;;5006512;28;20109;-62
2023/11/23 10:20:09;;;;;;;10.80;7.43;;;6.00;84.10;;;;;;5006817;28;20048;-62
2023/11/23 10:22:35;;;;;;;12.70;7.80;;;6.00;83.60;;;;;;5006514;28;20034;-62
2023/11/23 10:25:00;;;;;;;11.77;8.00;;;6.10;83.70;;;;;;4989097;28;20033;-61
2023/11/23 10:27:26;;;;;;;16.42;8.00;;;6.10;83.30;;;;;;5006208;28;20549;-62
2023/11/23 10:29:52;;;;;;;11.68;7.35;;;6.20;83.20;;;;;;5006761;28;20038;-62
2023/11/23 10:32:19;;;;;;;11.30;7.40;;;6.30;82.50;;;;;;5007206;28;20044;-63
2023/11/23 10:34:45;;;;;;;10.68;7.22;;;6.30;82.30;;;;;;5005616;28;20045;-62
2023/11/23 10:37:14;;;;;;;12.13;7.45;;;6.40;82.10;;;;;;5005691;28;20543;-62
2023/11/23 10:39:40;;;;;;;11.20;7.40;;;6.50;81.90;;;;;;5005516;28;20104;-62
2023/11/23 10:42:07;;;;;;;11.23;6.80;;;6.50;82.00;;;;;;5005728;28;20104;-62
2023/11/23 10:44:33;;;;;;;9.43;7.07;;;6.60;82.10;;;;;;5005507;28;20509;-62
2023/11/23 10:47:05;;;;;;;9.43;7.15;;;6.70;81.90;;;;;;5006104;28;20095;-62
2023/11/23 10:49:34;;;;;;;10.45;7.28;;;6.70;81.50;;;;;;5005651;28;20042;-62
2023/11/23 10:52:00;;;;;;;10.50;7.22;;;6.80;81.30;;;;;;5004586;28;20096;-63
2023/11/23 10:54:26;;;;;;;9.13;6.53;;;6.90;81.50;;;;;;5005163;28;20041;-61
2023/11/23 10:56:55;;;;;;;10.55;6.70;;;6.90;81.20;;;;;;5006067;28;20046;-63
2023/11/23 10:59:22;;;;;;;10.15;6.50;;;7.00;80.80;;;;;;5004983;28;20486;-63
2023/11/23 11:01:50;;;;;;;12.27;6.70;;;7.10;80.80;;;;;;5005215;28;20038;-62
2023/11/23 11:04:16;;;;;;;10.75;6.75;;;7.20;80.80;;;;;;5004700;28;20419;-63
2023/11/23 11:06:44;;;;;;;11.82;7.10;;;7.20;80.50;;;;;;5005018;28;20265;-62
2023/11/23 11:09:16;;;;;;;9.23;6.45;;;7.30;80.30;;;;;;5005349;28;20042;-62
2023/11/23 11:11:44;;;;;;;11.18;7.13;;;7.30;79.40;;;;;;5003155;28;20044;-62
2023/11/23 11:14:13;;;;;;;10.38;6.70;;;7.40;79.80;;;;;;5006779;28;20030;-62
2023/11/23 11:16:39;;;;;;;9.48;6.55;;;7.50;79.80;;;;;;5005494;28;20049;-62
2023/11/23 11:19:11;;;;;;;8.18;6.30;;;7.50;79.50;;;;;;5006653;28;20422;-63
2023/11/23 11:21:44;;;;;;;12.82;6.43;;;7.60;79.10;;;;;;5005877;28;20026;-62
2023/11/23 11:24:20;;;;;;;8.20;6.38;;;7.60;78.50;;;;;;5006628;28;20065;-63
2023/11/23 11:26:46;;;;;;;9.85;6.63;;;7.70;78.40;;;;;;5005328;28;20092;-62
2023/11/23 11:29:13;;;;;;;8.20;6.15;;;7.70;78.80;;;;;;5006108;28;20505;-62
2023/11/23 11:31:42;;;;;;;10.93;6.25;;;7.80;78.70;;;;;;5006032;28;20042;-62
2023/11/23 11:34:21;;;;;;;8.80;6.55;;;7.80;78.90;;;;;;5005807;28;20050;-62
2023/11/23 11:37:07;;;;;;;8.07;5.97;;;7.90;78.30;;;;;;5005730;28;20052;-62
2023/11/23 11:39:35;;;;;;;8.93;6.20;;;7.90;77.50;;;;;;5004343;28;20457;-62
2023/11/23 11:42:02;;;;;;;11.60;6.28;;;8.00;76.60;;;;;;5003782;28;20034;-62
2023/11/23 11:44:33;;;;;;;8.80;5.90;;;8.00;76.30;;;;;;5004310;28;20109;-63
2023/11/23 11:47:01;;;;;;;8.35;5.82;;;8.00;76.60;;;;;;5004253;28;20494;-63
2023/11/23 11:49:27;;;;;;;12.40;6.20;;;8.10;76.80;;;;;;5003740;28;20548;-62
2023/11/23 11:51:53;;;;;;;7.57;5.72;;;8.10;76.00;;;;;;5003720;28;20042;-62
2023/11/23 11:54:22;;;;;;;8.10;6.20;;;8.10;76.60;;;;;;5005344;28;20488;-62
2023/11/23 11:56:49;;;;;;;8.63;5.95;;;8.20;76.30;;;;;;5004253;28;20048;-62
2023/11/23 11:59:20;;;;;;;9.88;6.35;;;8.20;76.10;;;;;;5003392;28;20052;-62
2023/11/23 12:01:47;;;;;;;11.10;6.03;;;8.20;75.80;;;;;;5004657;28;20409;-62
2023/11/23 12:04:19;;;;;;;9.75;6.03;;;8.20;76.00;;;;;;5004977;28;20624;-63
2023/11/23 12:06:48;;;;;;;9.65;6.28;;;8.30;75.40;;;;;;5003723;28;20398;-63
2023/11/23 12:09:19;;;;;;;11.07;7.07;;;8.30;74.80;;;;;;5004742;28;20049;-62
2023/11/23 12:11:48;;;;;;;9.07;6.30;;;8.30;74.60;;;;;;5003039;28;20433;-62
2023/11/23 12:14:14;;;;;;;11.25;6.13;;;8.40;74.80;;;;;;5005387;28;20037;-62
2023/11/23 12:16:40;;;;;;;9.55;6.57;;;8.30;74.80;;;;;;5003420;28;20044;-63
2023/11/23 12:19:19;;;;;;;11.05;6.63;;;8.40;74.40;;;;;;5003758;28;20039;-62
2023/11/23 12:21:58;;;;;;;9.52;6.75;;;8.40;73.40;;;;;;5002953;28;20034;-62
2023/11/23 12:24:28;;;;;;;10.70;6.68;;;8.40;73.70;;;;;;5004349;28;20120;-62
2023/11/23 12:26:55;;;;;;;7.72;6.18;;;8.40;74.80;;;;;;5003245;28;20643;-63
2023/11/23 12:29:31;;;;;;;10.30;6.43;;;8.40;74.30;;;;;;5003298;28;20042;-63
2023/11/23 12:31:59;;;;;;;9.88;6.65;;;8.40;74.60;;;;;;5004148;28;20041;-63
2023/11/23 12:34:26;;;;;;;9.48;6.53;;;8.50;74.80;;;;;;5003283;28;20030;-63
2023/11/23 12:36:52;;;;;;;9.45;6.03;;;8.50;74.20;;;;;;5002998;28;20041;-60
2023/11/23 12:39:19;;;;;;;8.50;6.20;;;8.50;74.40;;;;;;5003089;28;20401;-62
2023/11/23 12:41:45;;;;;;;9.23;6.00;;;8.50;74.70;;;;;;5003872;28;20022;-61
2023/11/23 12:44:11;;;;;;;9.75;6.18;;;8.60;74.50;;;;;;5003592;28;20575;-63